createdAt,value
2019-04-20T00:02:19.350Z,4.53
2019-04-20T00:04:47.888Z,4.93
2019-04-20T00:07:18.759Z,4.20
2019-04-20T00:09:55.432Z,4.67
2019-04-20T00:12:25.424Z,5.23
2019-04-20T00:14:48.086Z,5.50
2019-04-20T00:17:17.857Z,5.20
2019-04-20T00:19:50.437Z,4.47
2019-04-20T00:22:24.654Z,4.50
2019-04-20T00:24:58.117Z,4.53
2019-04-20T00:27:42.773Z,4.77
2019-04-20T00:30:06.741Z,4.73
2019-04-20T00:32:41.298Z,4.50
2019-04-20T00:34:56.313Z,4.80
2019-04-20T00:37:25.365Z,4.73
2019-04-20T00:39:55.976Z,4.17
2019-04-20T00:42:33.100Z,5.63
2019-04-20T00:45:03.064Z,7.40
2019-04-20T00:47:37.577Z,4.40
2019-04-20T00:50:08.000Z,5.67
2019-04-20T00:52:43.760Z,4.87
2019-04-20T00:54:58.021Z,4.70
2019-04-20T00:57:38.072Z,4.10
2019-04-20T01:00:17.789Z,4.53
2019-04-20T01:02:40.639Z,4.77
2019-04-20T01:05:15.458Z,5.77
2019-04-20T01:07:43.141Z,6.20
2019-04-20T01:10:15.176Z,5.27
2019-04-20T01:12:45.679Z,4.70
2019-04-20T01:15:24.510Z,6.50
2019-04-20T01:17:45.783Z,6.07
2019-04-20T01:20:14.968Z,5.77
2019-04-20T01:22:53.805Z,5.53
2019-04-20T01:25:23.090Z,6.13
2019-04-20T01:28:05.465Z,5.17
2019-04-20T01:30:25.240Z,6.20
2019-04-20T01:33:02.553Z,5.77
2019-04-20T01:35:35.645Z,5.30
2019-04-20T01:38:06.924Z,5.53
2019-04-20T01:40:17.378Z,5.90
2019-04-20T01:42:46.761Z,5.00
2019-04-20T01:45:22.449Z,6.00
2019-04-20T01:47:52.356Z,6.00
2019-04-20T01:50:24.700Z,5.77
2019-04-20T01:52:58.279Z,5.23
2019-04-20T01:55:45.470Z,5.90
2019-04-20T01:58:17.560Z,5.50
2019-04-20T02:00:40.167Z,5.57
2019-04-20T02:03:31.336Z,6.30
2019-04-20T02:06:03.400Z,5.57
2019-04-20T02:08:29.412Z,5.50
2019-04-20T02:11:00.312Z,6.47
2019-04-20T02:13:34.751Z,6.00
2019-04-20T02:16:10.092Z,5.57
2019-04-20T02:18:40.068Z,4.90
2019-04-20T02:21:19.846Z,6.60
2019-04-20T02:23:42.101Z,6.17
2019-04-20T02:26:01.198Z,5.87
2019-04-20T02:28:56.881Z,6.77
2019-04-20T02:32:03.307Z,6.63
2019-04-20T02:34:07.006Z,6.43
2019-04-20T02:36:52.611Z,7.27
2019-04-20T02:42:12.088Z,6.97
2019-04-20T02:44:40.395Z,7.07
2019-04-20T02:47:07.501Z,6.80
2019-04-20T02:49:37.666Z,5.70
2019-04-20T02:52:02.656Z,7.63
2019-04-20T02:54:26.612Z,7.00
2019-04-20T03:01:55.289Z,6.77
2019-04-20T03:04:19.227Z,6.73
2019-04-20T03:06:54.832Z,8.37
2019-04-20T03:09:32.476Z,6.57
2019-04-20T03:12:06.170Z,8.73
2019-04-20T03:14:29.320Z,7.67
2019-04-20T03:17:08.582Z,7.07
2019-04-20T03:19:23.398Z,7.40
2019-04-20T03:22:05.168Z,7.67
2019-04-20T03:24:38.742Z,7.10
2019-04-20T03:26:59.860Z,6.93
2019-04-20T03:29:51.010Z,7.90
2019-04-20T03:32:57.973Z,6.50
2019-04-20T03:37:28.082Z,8.20
2019-04-20T03:39:46.417Z,6.70
2019-04-20T03:42:02.196Z,6.80
2019-04-20T03:44:34.005Z,6.90
2019-04-20T03:47:07.764Z,7.93
2019-04-20T03:49:55.005Z,7.40
2019-04-20T03:52:36.468Z,8.97
2019-04-20T03:55:16.555Z,7.43
2019-04-20T03:57:51.358Z,8.27
2019-04-20T04:00:42.433Z,7.33
2019-04-20T04:03:39.181Z,7.13
2019-04-20T04:05:56.187Z,7.57
2019-04-20T04:08:23.713Z,8.10
2019-04-20T04:11:06.523Z,6.90
2019-04-20T04:13:18.595Z,6.70
2019-04-20T04:15:55.632Z,8.27
2019-04-20T04:18:28.009Z,6.43
2019-04-20T04:20:59.516Z,7.27
2019-04-20T04:23:40.902Z,7.80
2019-04-20T04:26:19.557Z,6.87
2019-04-20T04:28:40.719Z,6.47
2019-04-20T04:31:16.324Z,7.92
2019-04-20T04:36:12.974Z,7.57
2019-04-20T04:38:48.712Z,8.80
2019-04-20T04:41:19.968Z,8.50
2019-04-20T04:43:44.098Z,6.93
2019-04-20T04:45:55.623Z,8.20
2019-04-20T04:48:31.059Z,10.67
2019-04-20T04:51:02.365Z,9.23
2019-04-20T04:53:39.585Z,7.37
2019-04-20T04:56:02.820Z,6.80
2019-04-20T04:58:26.069Z,7.00
2019-04-20T05:01:03.784Z,7.90
2019-04-20T05:03:47.670Z,7.70
2019-04-20T05:06:14.316Z,6.70
2019-04-20T05:08:37.820Z,6.70
2019-04-20T05:11:02.553Z,7.47
2019-04-20T05:13:38.757Z,6.67
2019-04-20T05:16:15.860Z,6.27
2019-04-20T05:18:57.884Z,6.77
2019-04-20T05:21:25.983Z,6.73
2019-04-20T05:23:49.178Z,6.63
2019-04-20T05:26:39.785Z,6.40
2019-04-20T05:29:02.527Z,7.37
2019-04-20T05:31:23.464Z,6.57
2019-04-20T05:34:15.966Z,6.57
2019-04-20T05:36:41.262Z,6.03
2019-04-20T05:39:25.165Z,6.37
2019-04-20T05:41:44.055Z,6.77
2019-04-20T05:44:12.827Z,6.27
2019-04-20T05:46:48.200Z,6.63
2019-04-20T05:49:22.142Z,6.73
2019-04-20T05:51:47.730Z,6.10
2019-04-20T05:54:23.649Z,9.07
2019-04-20T05:56:52.705Z,10.60
2019-04-20T05:59:19.132Z,6.13
2019-04-20T06:01:57.665Z,6.97
2019-04-20T06:04:44.532Z,6.97
2019-04-20T06:06:58.071Z,8.40
2019-04-20T06:09:28.016Z,7.43
2019-04-20T06:12:07.610Z,6.77
2019-04-20T06:14:19.336Z,6.97
2019-04-20T06:17:04.754Z,6.00
2019-04-20T06:19:35.837Z,7.33
2019-04-20T06:22:14.907Z,8.50
2019-04-20T06:24:45.412Z,9.87
2019-04-20T06:27:08.281Z,9.30
2019-04-20T06:29:42.667Z,8.23
2019-04-20T06:32:24.473Z,7.37
2019-04-20T06:34:53.472Z,9.50
2019-04-20T06:37:10.112Z,11.03
2019-04-20T06:42:14.832Z,8.33
2019-04-20T06:44:41.328Z,7.00
2019-04-20T06:47:18.761Z,7.57
2019-04-20T06:49:42.189Z,5.77
2019-04-20T06:52:26.181Z,5.73
2019-04-20T06:55:03.465Z,6.47
2019-04-20T06:57:52.883Z,6.60
2019-04-20T07:00:14.671Z,8.37
2019-04-20T07:05:17.474Z,5.70
2019-04-20T07:07:43.425Z,7.33
2019-04-20T07:10:15.133Z,5.47
2019-04-20T07:12:37.907Z,5.80
2019-04-20T07:14:58.828Z,6.07
2019-04-20T07:20:17.298Z,7.07
2019-04-20T07:22:54.335Z,5.70
2019-04-20T07:25:26.199Z,5.50
2019-04-20T07:27:58.261Z,6.03
2019-04-20T07:30:29.621Z,6.10
2019-04-20T07:32:57.954Z,6.23
2019-04-20T07:35:30.523Z,5.50
2019-04-20T07:38:16.573Z,5.20
2019-04-20T07:40:28.996Z,5.77
2019-04-20T07:45:33.479Z,5.10
2019-04-20T07:48:09.034Z,5.40
2019-04-20T07:50:25.261Z,7.73
2019-04-20T07:52:51.428Z,5.50
2019-04-20T07:57:57.706Z,6.93
2019-04-20T08:03:28.406Z,5.93
2019-04-20T08:05:45.809Z,5.40
2019-04-20T08:08:27.138Z,5.93
2019-04-20T08:10:51.506Z,5.37
2019-04-20T08:13:36.508Z,5.67
2019-04-20T08:16:00.636Z,9.17
2019-04-20T08:18:35.030Z,5.27
2019-04-20T08:21:06.459Z,5.47
2019-04-20T08:23:31.723Z,4.60
2019-04-20T08:25:49.397Z,5.17
2019-04-20T08:28:31.549Z,4.63
2019-04-20T08:31:09.460Z,4.97
2019-04-20T08:33:58.201Z,5.73
2019-04-20T08:36:22.873Z,6.33
2019-04-20T08:39:14.093Z,6.20
2019-04-20T08:41:19.394Z,6.73
2019-04-20T08:43:58.960Z,5.80
2019-04-20T08:46:30.523Z,7.40
2019-04-20T08:48:50.873Z,4.80
2019-04-20T08:51:25.858Z,5.33
2019-04-20T08:53:53.022Z,4.80
2019-04-20T08:56:18.785Z,5.30
2019-04-20T08:58:36.221Z,5.20
2019-04-20T09:01:08.709Z,5.53
2019-04-20T09:03:46.295Z,6.50
2019-04-20T09:06:23.836Z,5.83
2019-04-20T09:08:50.319Z,5.27
2019-04-20T09:11:24.985Z,6.00
2019-04-20T09:13:43.076Z,6.60
2019-04-20T09:16:09.100Z,5.03
2019-04-20T09:18:50.194Z,5.23
2019-04-20T09:21:26.710Z,7.63
2019-04-20T09:24:11.798Z,5.03
2019-04-20T09:26:37.681Z,5.60
2019-04-20T09:29:07.266Z,6.07
2019-04-20T09:31:39.254Z,6.43
2019-04-20T09:34:13.327Z,5.73
2019-04-20T09:36:45.798Z,5.63
2019-04-20T09:39:16.436Z,5.33
2019-04-20T09:42:00.781Z,5.50
2019-04-20T09:44:19.930Z,6.73
2019-04-20T09:46:54.222Z,5.50
2019-04-20T09:49:33.165Z,5.80
2019-04-20T09:52:08.074Z,6.67
2019-04-20T09:54:35.817Z,6.03
2019-04-20T09:57:10.454Z,6.27
2019-04-20T09:59:38.247Z,7.33
2019-04-20T10:02:04.771Z,6.33
2019-04-20T10:04:23.768Z,6.53
2019-04-20T10:06:52.884Z,7.73
2019-04-20T10:09:27.909Z,7.53
2019-04-20T10:11:53.110Z,5.43
2019-04-20T10:14:22.631Z,5.93
2019-04-20T10:16:51.900Z,5.47
2019-04-20T10:19:26.546Z,6.07
2019-04-20T10:21:51.009Z,6.03
2019-04-20T10:24:20.893Z,6.73
2019-04-20T10:26:50.460Z,6.57
2019-04-20T10:29:19.693Z,7.53
2019-04-20T10:31:54.666Z,6.83
2019-04-20T10:34:22.079Z,6.27
2019-04-20T10:36:51.438Z,5.83
2019-04-20T10:39:22.623Z,5.93
2019-04-20T10:41:56.257Z,5.97
2019-04-20T10:44:23.011Z,6.27
2019-04-20T10:46:53.256Z,7.90
2019-04-20T10:49:22.831Z,7.13
2019-04-20T10:51:51.730Z,6.17
2019-04-20T10:54:20.778Z,5.27
2019-04-20T10:56:49.797Z,6.70
2019-04-20T10:59:19.354Z,5.57
2019-04-20T11:01:49.755Z,6.00
2019-04-20T11:04:18.838Z,5.60
2019-04-20T11:06:48.105Z,5.63
2019-04-20T11:09:18.497Z,5.73
2019-04-20T11:11:48.267Z,6.37
2019-04-20T11:14:25.787Z,5.90
2019-04-20T11:16:48.531Z,5.10
2019-04-20T11:19:18.765Z,6.50
2019-04-20T11:21:48.196Z,6.47
2019-04-20T11:24:18.318Z,6.03
2019-04-20T11:26:47.241Z,5.33
2019-04-20T11:29:16.217Z,6.00
2019-04-20T11:31:49.482Z,4.97
2019-04-20T11:34:25.186Z,6.10
2019-04-20T11:36:45.859Z,6.00
2019-04-20T11:39:14.825Z,6.07
2019-04-20T11:41:43.848Z,6.13
2019-04-20T11:44:13.759Z,6.50
2019-04-20T11:46:42.992Z,5.20
2019-04-20T11:49:13.133Z,5.97
2019-04-20T11:51:43.452Z,5.23
2019-04-20T11:54:12.618Z,5.13
2019-04-20T11:56:45.106Z,5.43
2019-04-20T11:59:12.595Z,5.87
2019-04-20T12:02:00.517Z,6.63
2019-04-20T12:04:40.418Z,6.53
2019-04-20T12:06:58.998Z,8.30
2019-04-20T12:09:29.350Z,6.87
2019-04-20T12:12:09.298Z,6.33
2019-04-20T12:14:28.573Z,7.67
2019-04-20T12:16:57.567Z,6.33
2019-04-20T12:19:27.020Z,5.87
2019-04-20T12:21:55.982Z,6.73
2019-04-20T12:24:24.742Z,6.13
2019-04-20T12:26:54.580Z,6.30
2019-04-20T12:29:23.855Z,5.50
2019-04-20T12:31:55.390Z,6.13
2019-04-20T12:34:24.425Z,7.27
2019-04-20T12:36:53.364Z,7.53
2019-04-20T12:39:22.489Z,5.50
2019-04-20T12:41:58.175Z,5.30
2019-04-20T12:44:24.140Z,5.83
2019-04-20T12:46:54.380Z,4.73
2019-04-20T12:49:23.502Z,4.97
2019-04-20T12:51:59.231Z,5.27
2019-04-20T12:54:22.974Z,5.37
2019-04-20T12:56:52.987Z,5.70
2019-04-20T12:59:21.813Z,5.03
2019-04-20T13:01:51.386Z,4.97
2019-04-20T13:04:20.669Z,4.77
2019-04-20T13:06:54.645Z,4.90
2019-04-20T13:09:21.029Z,4.73
2019-04-20T13:11:59.173Z,5.73
2019-04-20T13:14:38.256Z,5.53
2019-04-20T13:17:08.255Z,5.07
2019-04-20T13:19:37.523Z,4.50
2019-04-20T13:22:07.377Z,4.60
2019-04-20T13:24:36.970Z,4.80
2019-04-20T13:27:07.063Z,5.17
2019-04-20T13:29:38.090Z,6.50
2019-04-20T13:32:07.673Z,4.83
2019-04-20T13:34:36.693Z,6.77
2019-04-20T13:37:08.352Z,13.97
2019-04-20T13:39:40.662Z,4.93
2019-04-20T13:42:14.085Z,4.90
2019-04-20T13:44:39.041Z,5.37
2019-04-20T13:47:10.982Z,4.73
2019-04-20T13:49:41.046Z,4.40
2019-04-20T13:52:10.801Z,4.67
2019-04-20T13:54:40.116Z,4.77
2019-04-20T13:57:11.190Z,5.03
2019-04-20T13:59:41.947Z,4.30
2019-04-20T14:02:33.159Z,4.87
2019-04-20T14:05:04.527Z,6.37
2019-04-20T14:07:35.574Z,4.47
2019-04-20T14:10:05.987Z,4.90
2019-04-20T14:12:37.522Z,5.37
2019-04-20T14:15:08.984Z,4.70
2019-04-20T14:17:39.130Z,4.53
2019-04-20T14:20:14.970Z,4.83
2019-04-20T14:22:41.008Z,4.40
2019-04-20T14:25:11.149Z,4.93
2019-04-20T14:27:40.225Z,4.30
2019-04-20T14:30:10.952Z,4.77
2019-04-20T14:32:40.921Z,3.77
2019-04-20T14:35:11.242Z,5.33
2019-04-20T14:37:41.358Z,5.30
2019-04-20T14:40:12.538Z,4.97
2019-04-20T14:42:46.270Z,4.47
2019-04-20T14:45:12.219Z,4.40
2019-04-20T14:47:41.568Z,5.03
2019-04-20T14:50:13.652Z,4.83
2019-04-20T14:52:43.747Z,4.83
2019-04-20T14:55:15.647Z,4.37
2019-04-20T14:57:43.677Z,4.63
2019-04-20T15:00:31.892Z,4.10
2019-04-20T15:03:19.735Z,4.77
2019-04-20T15:05:53.016Z,6.37
2019-04-20T15:08:24.885Z,4.73
2019-04-20T15:10:54.578Z,4.57
2019-04-20T15:13:24.555Z,4.53
2019-04-20T15:15:54.753Z,5.03
2019-04-20T15:18:25.288Z,4.00
2019-04-20T15:20:55.700Z,4.03
2019-04-20T15:23:26.183Z,3.80
2019-04-20T15:25:55.129Z,3.97
2019-04-20T15:28:24.193Z,3.60
2019-04-20T15:30:54.260Z,3.47
2019-04-20T15:33:23.271Z,3.80
2019-04-20T15:35:52.490Z,4.17
2019-04-20T15:38:22.910Z,3.40
2019-04-20T15:40:53.037Z,4.07
2019-04-20T15:43:25.900Z,3.70
2019-04-20T15:45:52.654Z,3.50
2019-04-20T15:48:21.987Z,4.07
2019-04-20T15:50:51.907Z,3.80
2019-04-20T15:53:21.804Z,4.27
2019-04-20T15:55:52.245Z,3.47
2019-04-20T15:58:22.597Z,3.63
2019-04-20T16:00:52.828Z,3.83
2019-04-20T16:03:39.619Z,4.77
2019-04-20T16:06:11.365Z,5.10
2019-04-20T16:08:42.097Z,4.17
2019-04-20T16:11:13.161Z,4.13
2019-04-20T16:13:47.560Z,3.30
2019-04-20T16:16:14.008Z,4.20
2019-04-20T16:18:43.357Z,3.97
2019-04-20T16:21:18.269Z,4.10
2019-04-20T16:23:48.571Z,3.93
2019-04-20T16:26:19.853Z,3.53
2019-04-20T16:28:49.984Z,4.00
2019-04-20T16:31:20.454Z,4.00
2019-04-20T16:33:50.872Z,3.53
2019-04-20T16:36:20.660Z,3.60
2019-04-20T16:38:49.512Z,4.13
2019-04-20T16:41:18.391Z,3.93
2019-04-20T16:43:48.530Z,3.77
2019-04-20T16:46:20.493Z,3.83
2019-04-20T16:48:48.462Z,3.90
2019-04-20T16:51:18.443Z,3.63
2019-04-20T16:53:47.947Z,5.03
2019-04-20T16:56:18.951Z,4.20
2019-04-20T16:58:48.314Z,3.87
2019-04-20T17:01:19.286Z,3.70
2019-04-20T17:03:54.491Z,3.60
2019-04-20T17:06:20.459Z,4.60
2019-04-20T17:08:51.355Z,3.60
2019-04-20T17:11:21.522Z,3.60
2019-04-20T17:13:53.744Z,3.37
2019-04-20T17:16:21.873Z,3.67
2019-04-20T17:18:51.957Z,3.43
2019-04-20T17:21:24.123Z,5.47
2019-04-20T17:23:51.451Z,3.33
2019-04-20T17:26:23.101Z,5.10
2019-04-20T17:29:01.764Z,3.77
2019-04-20T17:31:47.330Z,3.73
2019-04-20T17:34:37.692Z,4.37
2019-04-20T17:36:48.480Z,3.20
2019-04-20T17:39:30.127Z,4.30
2019-04-20T17:42:03.406Z,3.13
2019-04-20T17:44:31.445Z,2.83
2019-04-20T17:47:00.659Z,3.97
2019-04-20T17:49:31.614Z,3.20
2019-04-20T17:52:14.269Z,3.53
2019-04-20T17:54:22.365Z,2.63
2019-04-20T17:56:52.193Z,4.40
2019-04-20T17:59:22.289Z,2.90
2019-04-20T18:02:10.252Z,3.80
2019-04-20T18:05:08.469Z,4.77
2019-04-20T18:07:35.401Z,4.47
2019-04-20T18:10:05.716Z,3.20
2019-04-20T18:12:26.052Z,3.43
2019-04-20T18:14:58.106Z,7.87
2019-04-20T18:17:29.342Z,5.03
2019-04-20T18:19:49.509Z,8.37
2019-04-20T18:22:19.526Z,3.60
2019-04-20T18:25:10.055Z,3.57
2019-04-20T18:27:37.286Z,4.33
2019-04-20T18:30:09.484Z,4.10
2019-04-20T18:32:33.753Z,3.93
2019-04-20T18:35:06.960Z,3.00
2019-04-20T18:37:34.841Z,4.93
2019-04-20T18:40:12.737Z,6.33
2019-04-20T18:42:43.454Z,2.97
2019-04-20T18:45:28.063Z,3.97
2019-04-20T18:48:04.688Z,4.70
2019-04-20T18:50:22.458Z,3.10
2019-04-20T18:52:42.330Z,3.13
2019-04-20T18:55:16.274Z,3.53
2019-04-20T18:57:43.454Z,5.20
2019-04-20T19:00:20.023Z,3.23
2019-04-20T19:02:50.166Z,4.53
2019-04-20T19:05:16.021Z,3.30
2019-04-20T19:07:52.766Z,3.00
2019-04-20T19:10:24.785Z,9.40
2019-04-20T19:12:58.898Z,3.70
2019-04-20T19:15:53.438Z,6.00
2019-04-20T19:18:18.307Z,3.33
2019-04-20T19:20:39.010Z,4.67
2019-04-20T19:23:08.452Z,3.60
2019-04-20T19:25:40.400Z,3.33
2019-04-20T19:28:08.854Z,4.90
2019-04-20T19:30:49.794Z,3.40
2019-04-20T19:33:24.415Z,3.73
2019-04-20T19:35:51.620Z,3.37
2019-04-20T19:38:18.629Z,4.63
2019-04-20T19:40:52.595Z,3.10
2019-04-20T19:43:22.064Z,4.03
2019-04-20T19:46:24.397Z,4.23
2019-04-20T19:48:25.458Z,4.27
2019-04-20T19:51:08.396Z,3.97
2019-04-20T19:53:30.462Z,5.70
2019-04-20T19:55:56.962Z,3.43
2019-04-20T19:58:26.402Z,3.40
2019-04-20T20:00:51.263Z,3.27
2019-04-20T20:03:19.349Z,4.53
2019-04-20T20:05:51.848Z,4.20
2019-04-20T20:08:23.898Z,5.43
2019-04-20T20:10:50.722Z,4.77
2019-04-20T20:13:20.443Z,3.70
2019-04-20T20:15:57.673Z,3.90
2019-04-20T20:18:35.366Z,3.53
2019-04-20T20:21:04.987Z,4.30
2019-04-20T20:23:20.721Z,4.23
2019-04-20T20:25:51.111Z,5.03
2019-04-20T20:28:32.259Z,4.67
2019-04-20T20:31:01.806Z,5.33
2019-04-20T20:33:39.693Z,4.80
2019-04-20T20:36:02.247Z,4.40
2019-04-20T20:38:27.924Z,5.40
2019-04-20T20:41:02.946Z,5.27
2019-04-20T20:43:39.815Z,6.43
2019-04-20T20:46:07.979Z,5.00
2019-04-20T20:48:38.722Z,5.77
2019-04-20T20:51:12.198Z,6.97
2019-04-20T20:53:39.750Z,4.87
2019-04-20T20:56:06.615Z,7.17
2019-04-20T20:58:40.686Z,4.93
2019-04-20T21:01:07.831Z,5.07
2019-04-20T21:03:32.264Z,4.97
2019-04-20T21:05:57.908Z,4.63
2019-04-20T21:08:26.736Z,5.60
2019-04-20T21:10:56.579Z,5.70
2019-04-20T21:13:34.479Z,7.00
2019-04-20T21:16:02.891Z,5.00
2019-04-20T21:18:43.543Z,5.33
2019-04-20T21:21:13.060Z,5.93
2019-04-20T21:23:36.806Z,5.53
2019-04-20T21:26:04.976Z,6.03
2019-04-20T21:28:36.080Z,5.60
2019-04-20T21:31:12.552Z,5.70
2019-04-20T21:33:38.102Z,5.90
2019-04-20T21:36:07.094Z,5.30
2019-04-20T21:38:40.840Z,5.40
2019-04-20T21:41:11.285Z,5.90
2019-04-20T21:43:40.770Z,5.77
2019-04-20T21:46:10.222Z,5.63
2019-04-20T21:48:51.417Z,6.73
2019-04-20T21:51:27.524Z,5.57
2019-04-20T21:53:40.388Z,6.30
2019-04-20T21:56:10.195Z,5.30
2019-04-20T21:58:46.552Z,6.23
2019-04-20T22:01:31.681Z,5.03
2019-04-20T22:03:54.500Z,6.30
2019-04-20T22:06:24.414Z,6.13
2019-04-20T22:08:59.788Z,5.23
2019-04-20T22:11:24.088Z,5.57
2019-04-20T22:13:54.525Z,5.57
2019-04-20T22:16:25.575Z,5.03
2019-04-20T22:19:10.309Z,6.17
2019-04-20T22:21:38.341Z,6.00
2019-04-20T22:24:06.235Z,6.27
2019-04-20T22:26:32.699Z,5.40
2019-04-20T22:28:56.306Z,5.40
2019-04-20T22:31:26.372Z,5.30
2019-04-20T22:33:56.356Z,6.17
2019-04-20T22:36:35.561Z,8.17
2019-04-20T22:39:15.675Z,5.73
2019-04-20T22:41:55.745Z,6.73
2019-04-20T22:44:20.697Z,6.87
2019-04-20T22:46:47.729Z,5.37
2019-04-20T22:49:33.582Z,7.40
2019-04-20T22:51:58.819Z,4.90
2019-04-20T22:54:36.306Z,6.17
2019-04-20T22:57:01.074Z,6.60
2019-04-20T22:59:23.321Z,4.90
2019-04-20T23:01:56.774Z,5.87
2019-04-20T23:04:22.466Z,4.80
2019-04-20T23:06:52.353Z,4.80
2019-04-20T23:09:22.636Z,4.70
2019-04-20T23:11:54.706Z,4.83
2019-04-20T23:14:22.513Z,4.90
2019-04-20T23:16:53.899Z,4.67
2019-04-20T23:19:35.703Z,6.13
2019-04-20T23:21:58.909Z,5.10
2019-04-20T23:24:23.680Z,5.20
2019-04-20T23:26:53.189Z,5.23
2019-04-20T23:29:27.234Z,5.00
2019-04-20T23:31:59.411Z,5.00
2019-04-20T23:34:26.690Z,5.27
2019-04-20T23:36:54.669Z,4.70
2019-04-20T23:39:34.021Z,5.03
2019-04-20T23:42:00.398Z,6.20
2019-04-20T23:44:48.266Z,4.93
2019-04-20T23:47:24.115Z,5.87
2019-04-20T23:50:16.237Z,4.77
2019-04-20T23:52:49.471Z,6.33
2019-04-20T23:55:05.857Z,5.27
2019-04-20T23:57:31.607Z,5.33
